createdAt,value
2023-07-23T00:00:07.149Z,98.87
2023-07-23T00:01:07.157Z,98.77
2023-07-23T00:02:07.102Z,99.18
2023-07-23T00:03:07.091Z,99.48
2023-07-23T00:04:07.119Z,99.48
2023-07-23T00:05:07.089Z,99.18
2023-07-23T00:06:07.071Z,99.18
2023-07-23T00:07:07.055Z,99.18
2023-07-23T00:08:07.028Z,98.97
2023-07-23T00:09:07.020Z,98.77
2023-07-23T00:10:07.042Z,98.87
2023-07-23T00:11:07.015Z,98.87
2023-07-23T00:12:06.990Z,98.77
2023-07-23T00:13:06.985Z,98.77
2023-07-23T00:14:06.969Z,98.77
2023-07-23T00:15:06.956Z,98.67
2023-07-23T00:16:06.990Z,98.77
2023-07-23T00:17:06.932Z,98.77
2023-07-23T00:18:06.926Z,98.67
2023-07-23T00:19:06.912Z,98.67
2023-07-23T00:20:06.906Z,98.57
2023-07-23T00:21:06.915Z,98.67
2023-07-23T00:22:06.887Z,98.57
2023-07-23T00:23:06.875Z,98.47
2023-07-23T00:24:06.868Z,98.71
2023-07-23T00:25:06.851Z,98.87
2023-07-23T00:26:06.840Z,98.97
2023-07-23T00:27:06.870Z,99.02
2023-07-23T00:28:06.822Z,99.22
2023-07-23T00:29:06.796Z,99.32
2023-07-23T00:30:06.794Z,99.22
2023-07-23T00:31:06.790Z,99.52
2023-07-23T00:32:06.769Z,99.62
2023-07-23T00:33:06.804Z,99.52
2023-07-23T00:34:06.746Z,99.22
2023-07-23T00:35:06.730Z,99.12
2023-07-23T00:36:06.726Z,99.12
2023-07-23T00:37:06.713Z,99.12
2023-07-23T00:38:06.728Z,99.12
2023-07-23T00:39:06.910Z,99.32
2023-07-23T00:40:06.699Z,99.42
2023-07-23T00:41:06.677Z,99.52
2023-07-23T00:42:06.661Z,99.52
2023-07-23T00:43:06.647Z,99.73
2023-07-23T00:44:06.631Z,99.73
2023-07-23T00:45:06.640Z,99.62
2023-07-23T00:46:06.673Z,99.73
2023-07-23T00:47:06.596Z,99.73
2023-07-23T00:48:06.633Z,99.83
2023-07-23T00:49:06.598Z,99.73
2023-07-23T00:50:06.593Z,99.73
2023-07-23T00:51:06.552Z,99.73
2023-07-23T00:52:06.625Z,99.73
2023-07-23T00:53:06.534Z,99.83
2023-07-23T00:54:06.548Z,99.83
2023-07-23T00:55:06.535Z,99.83
2023-07-23T00:56:06.506Z,99.93
2023-07-23T00:57:06.486Z,99.93
2023-07-23T00:58:06.471Z,99.83
2023-07-23T00:59:06.461Z,99.83
2023-07-23T01:00:06.471Z,99.73
2023-07-23T01:01:06.458Z,99.83
2023-07-23T01:02:06.442Z,99.73
2023-07-23T01:03:06.455Z,99.83
2023-07-23T01:04:06.423Z,99.83
2023-07-23T01:05:06.417Z,99.73
2023-07-23T01:06:06.391Z,99.62
2023-07-23T01:07:06.375Z,99.52
2023-07-23T01:08:06.385Z,99.62
2023-07-23T01:09:06.346Z,99.62
2023-07-23T01:10:06.430Z,99.62
2023-07-23T01:11:06.347Z,99.73
2023-07-23T01:12:06.320Z,99.83
2023-07-23T01:13:06.304Z,99.93
2023-07-23T01:14:06.296Z,99.83
2023-07-23T01:15:06.297Z,99.93
2023-07-23T01:16:06.311Z,99.73
2023-07-23T01:17:06.280Z,99.62
2023-07-23T01:18:06.357Z,99.62
2023-07-23T01:19:06.290Z,99.62
2023-07-23T01:20:06.426Z,99.62
2023-07-23T01:21:06.230Z,99.62
2023-07-23T01:22:06.237Z,99.52
2023-07-23T01:23:06.197Z,99.52
2023-07-23T01:24:06.191Z,99.62
2023-07-23T01:25:06.291Z,99.62
2023-07-23T01:26:06.169Z,99.52
2023-07-23T01:27:06.147Z,99.52
2023-07-23T01:28:06.151Z,99.52
2023-07-23T01:29:06.127Z,99.32
2023-07-23T01:30:06.222Z,99.22
2023-07-23T01:31:06.177Z,99.12
2023-07-23T01:32:06.135Z,99.02
2023-07-23T01:33:06.094Z,99.22
2023-07-23T01:34:06.099Z,99.12
2023-07-23T01:35:06.065Z,99.02
2023-07-23T01:36:06.052Z,99.02
2023-07-23T01:37:06.069Z,99.22
2023-07-23T01:38:06.027Z,99.12
2023-07-23T01:39:06.015Z,98.92
2023-07-23T01:40:06.028Z,98.71
2023-07-23T01:41:06.001Z,98.71
2023-07-23T01:42:05.984Z,98.71
2023-07-23T01:43:06.007Z,98.82
2023-07-23T01:44:05.957Z,98.92
2023-07-23T01:45:05.971Z,98.92
2023-07-23T01:46:05.940Z,99.02
2023-07-23T01:47:05.929Z,98.92
2023-07-23T01:48:05.956Z,98.92
2023-07-23T01:49:06.396Z,99.02
2023-07-23T01:50:05.908Z,98.82
2023-07-23T01:51:05.889Z,98.92
2023-07-23T01:52:05.872Z,99.12
2023-07-23T01:53:05.900Z,99.52
2023-07-23T01:54:05.854Z,99.42
2023-07-23T01:55:05.841Z,99.32
2023-07-23T01:56:05.823Z,99.12
2023-07-23T01:57:05.810Z,99.22
2023-07-23T01:58:05.845Z,99.02
2023-07-23T01:59:05.875Z,98.92
2023-07-23T02:00:05.782Z,98.92
2023-07-23T02:01:05.988Z,98.82
2023-07-23T02:02:05.799Z,98.71
2023-07-23T02:03:05.812Z,98.61
2023-07-23T02:04:05.768Z,98.51
2023-07-23T02:05:05.756Z,98.31
2023-07-23T02:06:05.744Z,98.41
2023-07-23T02:07:05.706Z,98.31
2023-07-23T02:08:05.722Z,98.31
2023-07-23T02:09:05.682Z,98.41
2023-07-23T02:10:05.673Z,98.41
2023-07-23T02:11:05.657Z,98.31
2023-07-23T02:12:05.647Z,98.21
2023-07-23T02:13:05.657Z,98.21
2023-07-23T02:14:05.630Z,98.11
2023-07-23T02:15:05.621Z,98.11
2023-07-23T02:16:05.635Z,98.31
2023-07-23T02:17:05.610Z,98.31
2023-07-23T02:18:05.646Z,98.01
2023-07-23T02:19:05.570Z,98.11
2023-07-23T02:20:05.565Z,98.31
2023-07-23T02:21:05.546Z,98.21
2023-07-23T02:22:05.545Z,97.91
2023-07-23T02:23:05.545Z,97.80
2023-07-23T02:24:05.527Z,97.80
2023-07-23T02:25:05.512Z,97.71
2023-07-23T02:26:05.500Z,97.71
2023-07-23T02:27:05.501Z,97.80
2023-07-23T02:28:05.510Z,97.91
2023-07-23T02:29:05.454Z,97.91
2023-07-23T02:30:05.459Z,97.91
2023-07-23T02:31:05.458Z,97.71
2023-07-23T02:32:05.446Z,97.91
2023-07-23T02:33:05.456Z,98.11
2023-07-23T02:34:05.445Z,97.96
2023-07-23T02:35:05.394Z,98.05
2023-07-23T02:36:05.387Z,98.16
2023-07-23T02:37:05.368Z,98.25
2023-07-23T02:38:05.358Z,98.11
2023-07-23T02:39:05.382Z,97.85
2023-07-23T02:40:05.365Z,97.96
2023-07-23T02:41:05.320Z,97.91
2023-07-23T02:42:05.320Z,97.75
2023-07-23T02:43:05.315Z,97.75
2023-07-23T02:44:05.344Z,97.75
2023-07-23T02:45:05.344Z,97.55
2023-07-23T02:46:05.286Z,97.55
2023-07-23T02:47:05.265Z,97.55
2023-07-23T02:48:05.261Z,97.75
2023-07-23T02:49:05.238Z,97.85
2023-07-23T02:50:05.288Z,97.45
2023-07-23T02:51:05.215Z,97.45
2023-07-23T02:52:05.208Z,97.55
2023-07-23T02:53:05.192Z,97.75
2023-07-23T02:54:05.195Z,97.65
2023-07-23T02:55:05.168Z,97.75
2023-07-23T02:56:05.191Z,97.75
2023-07-23T02:57:05.197Z,97.65
2023-07-23T02:58:05.168Z,97.65
2023-07-23T02:59:05.120Z,97.75
2023-07-23T03:00:05.112Z,97.65
2023-07-23T03:01:05.124Z,97.65
2023-07-23T03:02:05.184Z,97.65
2023-07-23T03:03:05.094Z,97.75
2023-07-23T03:04:05.081Z,97.65
2023-07-23T03:05:05.050Z,97.55
2023-07-23T03:06:05.051Z,97.45
2023-07-23T03:07:05.048Z,97.45
2023-07-23T03:08:05.065Z,97.34
2023-07-23T03:09:05.013Z,97.14
2023-07-23T03:10:05.061Z,97.05
2023-07-23T03:11:04.992Z,97.14
2023-07-23T03:12:04.980Z,97.05
2023-07-23T03:13:11.679Z,96.94
2023-07-23T03:14:04.982Z,97.05
2023-07-23T03:15:04.939Z,97.05
2023-07-23T03:16:04.968Z,97.14
2023-07-23T03:17:04.920Z,97.14
2023-07-23T03:18:04.914Z,97.05
2023-07-23T03:19:04.927Z,96.94
2023-07-23T03:20:04.898Z,96.94
2023-07-23T03:21:04.879Z,96.84
2023-07-23T03:22:04.874Z,96.84
2023-07-23T03:23:04.848Z,96.84
2023-07-23T03:24:04.854Z,96.74
2023-07-23T03:25:04.862Z,96.64
2023-07-23T03:26:04.833Z,96.74
2023-07-23T03:27:04.815Z,96.54
2023-07-23T03:28:04.810Z,96.64
2023-07-23T03:29:04.841Z,96.84
2023-07-23T03:30:04.798Z,96.94
2023-07-23T03:31:04.772Z,96.84
2023-07-23T03:32:04.822Z,96.94
2023-07-23T03:33:04.778Z,96.84
2023-07-23T03:34:04.736Z,96.84
2023-07-23T03:35:04.756Z,96.84
2023-07-23T03:36:04.750Z,96.84
2023-07-23T03:37:04.705Z,96.94
2023-07-23T03:38:04.689Z,96.84
2023-07-23T03:39:04.675Z,96.64
2023-07-23T03:40:04.667Z,96.84
2023-07-23T03:41:04.685Z,96.84
2023-07-23T03:42:04.643Z,96.94
2023-07-23T03:43:04.675Z,96.84
2023-07-23T03:44:04.635Z,96.64
2023-07-23T03:45:04.637Z,96.54
2023-07-23T03:46:04.688Z,96.54
2023-07-23T03:47:04.590Z,96.44
2023-07-23T03:48:04.631Z,96.44
2023-07-23T03:49:04.571Z,96.54
2023-07-23T03:50:04.581Z,96.64
2023-07-23T03:51:04.561Z,96.84
2023-07-23T03:52:04.530Z,97.14
2023-07-23T03:53:04.517Z,97.05
2023-07-23T03:54:04.527Z,96.84
2023-07-23T03:55:04.500Z,96.34
2023-07-23T03:56:04.509Z,96.34
2023-07-23T03:57:04.479Z,96.34
2023-07-23T03:58:04.463Z,96.59
2023-07-23T03:59:04.460Z,96.59
2023-07-23T04:00:04.438Z,96.59
2023-07-23T04:01:04.476Z,96.69
2023-07-23T04:02:04.446Z,96.69
2023-07-23T04:03:04.442Z,96.80
2023-07-23T04:04:04.444Z,96.44
2023-07-23T04:05:04.393Z,96.03
2023-07-23T04:06:04.397Z,95.78
2023-07-23T04:07:04.363Z,95.98
2023-07-23T04:08:04.355Z,96.29
2023-07-23T04:09:04.341Z,96.59
2023-07-23T04:10:04.337Z,96.59
2023-07-23T04:11:04.333Z,96.19
2023-07-23T04:12:04.338Z,95.89
2023-07-23T04:13:04.296Z,95.98
2023-07-23T04:14:04.282Z,96.19
2023-07-23T04:15:04.278Z,96.29
2023-07-23T04:16:04.299Z,96.49
2023-07-23T04:17:04.251Z,96.80
2023-07-23T04:18:04.262Z,96.69
2023-07-23T04:19:04.236Z,96.39
2023-07-23T04:20:04.220Z,96.29
2023-07-23T04:21:04.210Z,96.29
2023-07-23T04:22:04.215Z,96.19
2023-07-23T04:23:04.212Z,96.39
2023-07-23T04:24:04.181Z,96.80
2023-07-23T04:25:04.165Z,97.00
2023-07-23T04:26:04.156Z,96.89
2023-07-23T04:27:04.142Z,96.69
2023-07-23T04:28:04.149Z,96.59
2023-07-23T04:29:04.126Z,96.49
2023-07-23T04:30:04.109Z,96.49
2023-07-23T04:31:04.115Z,96.19
2023-07-23T04:32:04.092Z,95.78
2023-07-23T04:33:04.128Z,95.78
2023-07-23T04:34:04.060Z,95.89
2023-07-23T04:35:04.052Z,95.68
2023-07-23T04:36:04.062Z,95.98
2023-07-23T04:37:04.046Z,95.78
2023-07-23T04:38:04.040Z,95.74
2023-07-23T04:39:04.006Z,96.04
2023-07-23T04:40:04.009Z,96.14
2023-07-23T04:41:03.983Z,95.43
2023-07-23T04:42:03.973Z,95.34
2023-07-23T04:43:03.962Z,95.54
2023-07-23T04:44:03.974Z,95.74
2023-07-23T04:45:03.940Z,95.74
2023-07-23T04:46:03.996Z,95.84
2023-07-23T04:47:03.918Z,95.74
2023-07-23T04:48:03.922Z,95.94
2023-07-23T04:49:03.906Z,95.94
2023-07-23T04:50:03.885Z,95.43
2023-07-23T04:51:03.874Z,95.43
2023-07-23T04:52:03.880Z,95.70
2023-07-23T04:53:03.868Z,96.10
2023-07-23T04:54:03.843Z,96.50
2023-07-23T04:55:03.863Z,95.03
2023-07-23T04:56:03.831Z,94.99
2023-07-23T04:57:03.820Z,95.90
2023-07-23T04:58:03.823Z,95.39
2023-07-23T04:59:03.780Z,95.49
2023-07-23T05:00:03.765Z,95.09
2023-07-23T05:01:03.854Z,94.59
2023-07-23T05:02:03.743Z,95.09
2023-07-23T05:03:03.775Z,94.68
2023-07-23T05:04:03.743Z,94.38
2023-07-23T05:05:03.737Z,94.18
2023-07-23T05:06:03.712Z,93.77
2023-07-23T05:07:03.697Z,93.48
2023-07-23T05:08:03.681Z,93.57
2023-07-23T05:09:03.687Z,93.68
2023-07-23T05:10:03.659Z,93.77
2023-07-23T05:11:03.679Z,93.27
2023-07-23T05:12:03.632Z,93.48
2023-07-23T05:13:03.626Z,93.57
2023-07-23T05:14:03.611Z,94.18
2023-07-23T05:15:03.622Z,94.04
2023-07-23T05:16:03.640Z,93.93
2023-07-23T05:17:06.054Z,93.43
2023-07-23T05:18:03.564Z,94.13
2023-07-23T05:19:03.566Z,93.43
2023-07-23T05:20:03.546Z,93.73
2023-07-23T05:21:03.539Z,93.84
2023-07-23T05:22:03.604Z,93.63
2023-07-23T05:23:03.524Z,93.73
2023-07-23T05:24:03.503Z,93.73
2023-07-23T05:25:03.493Z,93.93
2023-07-23T05:26:03.489Z,94.13
2023-07-23T05:27:03.491Z,94.54
2023-07-23T05:28:03.490Z,93.53
2023-07-23T05:29:03.453Z,93.33
2023-07-23T05:30:03.432Z,93.23
2023-07-23T05:31:03.464Z,92.93
2023-07-23T05:32:03.411Z,92.52
2023-07-23T05:33:04.253Z,92.72
2023-07-23T05:34:03.396Z,92.82
2023-07-23T05:35:03.389Z,92.62
2023-07-23T05:36:03.372Z,92.93
2023-07-23T05:37:10.224Z,92.62
2023-07-23T05:38:03.373Z,92.78
2023-07-23T05:39:03.339Z,92.58
2023-07-23T05:40:03.322Z,92.47
2023-07-23T05:41:03.306Z,92.78
2023-07-23T05:42:03.296Z,92.38
2023-07-23T05:43:03.312Z,92.38
2023-07-23T05:44:03.315Z,92.27
2023-07-23T05:45:03.270Z,91.87
2023-07-23T05:46:03.254Z,92.07
2023-07-23T05:47:03.304Z,91.67
2023-07-23T05:48:03.271Z,91.83
2023-07-23T05:49:03.245Z,91.33
2023-07-23T05:50:03.207Z,91.02
2023-07-23T05:51:03.203Z,90.82
2023-07-23T05:52:03.196Z,90.62
2023-07-23T05:53:03.196Z,90.42
2023-07-23T05:54:03.189Z,90.11
2023-07-23T05:55:03.152Z,90.48
2023-07-23T05:56:03.149Z,89.77
2023-07-23T05:57:03.155Z,89.97
2023-07-23T05:58:03.117Z,90.07
2023-07-23T05:59:03.134Z,90.07
2023-07-23T06:00:03.126Z,90.88
2023-07-23T06:01:03.137Z,90.78
2023-07-23T06:02:03.095Z,91.08
2023-07-23T06:03:03.139Z,90.28
2023-07-23T06:04:03.102Z,89.67
2023-07-23T06:05:03.889Z,89.17
2023-07-23T06:06:03.030Z,89.67
2023-07-23T06:07:03.023Z,88.92
2023-07-23T06:08:03.024Z,88.92
2023-07-23T06:09:03.007Z,89.32
2023-07-23T06:10:02.988Z,89.32
2023-07-23T06:11:03.006Z,88.28
2023-07-23T06:12:02.985Z,88.28
2023-07-23T06:13:02.966Z,87.77
2023-07-23T06:14:02.989Z,87.43
2023-07-23T06:15:03.063Z,87.13
2023-07-23T06:16:02.915Z,86.43
2023-07-23T06:17:02.959Z,86.52
2023-07-23T06:18:02.923Z,86.02
2023-07-23T06:19:02.889Z,86.22
2023-07-23T06:20:02.876Z,86.58
2023-07-23T06:21:02.885Z,85.88
2023-07-23T06:22:02.870Z,85.78
2023-07-23T06:23:02.840Z,85.78
2023-07-23T06:24:02.829Z,85.08
2023-07-23T06:25:02.847Z,85.33
2023-07-23T06:26:02.804Z,84.13
2023-07-23T06:27:02.830Z,83.53
2023-07-23T06:28:02.783Z,84.23
2023-07-23T06:29:02.806Z,84.13
2023-07-23T06:30:02.787Z,83.33
2023-07-23T06:31:02.772Z,84.43
2023-07-23T06:32:02.752Z,82.82
2023-07-23T06:33:02.772Z,83.23
2023-07-23T06:34:02.721Z,83.03
2023-07-23T06:35:05.868Z,82.98
2023-07-23T06:36:02.705Z,81.98
2023-07-23T06:37:02.696Z,81.58
2023-07-23T06:38:02.673Z,81.07
2023-07-23T06:39:02.694Z,81.34
2023-07-23T06:40:02.658Z,80.33
2023-07-23T06:41:02.648Z,80.24
2023-07-23T06:42:02.636Z,80.83
2023-07-23T06:43:02.623Z,79.63
2023-07-23T06:44:02.637Z,78.89
2023-07-23T06:45:02.609Z,79.49
2023-07-23T06:46:02.597Z,79.09
2023-07-23T06:47:02.573Z,78.19
2023-07-23T06:48:02.590Z,77.19
2023-07-23T06:49:02.600Z,77.99
2023-07-23T06:50:02.539Z,78.96
2023-07-23T06:51:02.539Z,78.96
2023-07-23T06:52:02.536Z,77.85
2023-07-23T06:53:02.617Z,77.35
2023-07-23T06:54:02.496Z,77.05
2023-07-23T06:55:02.515Z,77.25
2023-07-23T06:56:02.544Z,76.54
2023-07-23T06:57:02.470Z,76.54
2023-07-23T06:58:02.450Z,76.15
2023-07-23T06:59:02.487Z,75.95
2023-07-23T07:00:02.442Z,76.25
2023-07-23T07:01:02.420Z,76.15
2023-07-23T07:02:02.435Z,75.45
2023-07-23T07:03:02.473Z,75.54
2023-07-23T07:04:02.392Z,75.14
2023-07-23T07:05:02.404Z,75.34
2023-07-23T07:06:02.445Z,74.54
2023-07-23T07:07:02.384Z,74.74
2023-07-23T07:08:02.346Z,74.40
2023-07-23T07:09:02.350Z,74.51
2023-07-23T07:10:02.320Z,74.30
2023-07-23T07:11:02.328Z,74.90
2023-07-23T07:12:02.301Z,74.40
2023-07-23T07:13:02.285Z,74.97
2023-07-23T07:14:02.270Z,74.20
2023-07-23T07:15:02.283Z,73.70
2023-07-23T07:16:02.263Z,74.17
2023-07-23T07:17:04.088Z,74.47
2023-07-23T07:18:02.226Z,73.97
2023-07-23T07:19:02.245Z,74.27
2023-07-23T07:20:02.213Z,73.16
2023-07-23T07:21:02.214Z,73.47
2023-07-23T07:22:02.185Z,73.86
2023-07-23T07:23:02.178Z,73.16
2023-07-23T07:24:02.174Z,72.47
2023-07-23T07:25:02.168Z,72.56
2023-07-23T07:26:02.333Z,72.97
2023-07-23T07:27:02.130Z,72.27
2023-07-23T07:28:02.125Z,72.16
2023-07-23T07:29:02.109Z,72.77
2023-07-23T07:30:02.102Z,73.43
2023-07-23T07:31:02.160Z,72.53
2023-07-23T07:32:02.120Z,71.33
2023-07-23T07:33:02.097Z,72.53
2023-07-23T07:34:02.051Z,72.30
2023-07-23T07:35:02.039Z,71.00
2023-07-23T07:36:02.064Z,71.39
2023-07-23T07:37:02.026Z,71.19
2023-07-23T07:38:02.006Z,71.50
2023-07-23T07:39:02.009Z,71.89
2023-07-23T07:40:01.988Z,70.89
2023-07-23T07:41:01.986Z,69.99
2023-07-23T07:42:01.984Z,70.69
2023-07-23T07:43:01.964Z,71.00
2023-07-23T07:44:01.976Z,70.29
2023-07-23T07:45:01.942Z,70.59
2023-07-23T07:46:02.411Z,69.32
2023-07-23T07:47:01.914Z,69.82
2023-07-23T07:48:01.939Z,70.12
2023-07-23T07:49:01.884Z,70.23
2023-07-23T07:50:01.937Z,70.83
2023-07-23T07:51:01.886Z,70.19
2023-07-23T07:52:01.858Z,69.89
2023-07-23T07:53:01.853Z,69.39
2023-07-23T07:54:01.825Z,68.89
2023-07-23T07:55:01.832Z,69.09
2023-07-23T07:56:01.924Z,69.09
2023-07-23T07:57:01.803Z,69.26
2023-07-23T07:58:01.781Z,68.43
2023-07-23T07:59:04.143Z,68.62
2023-07-23T08:00:01.800Z,68.39
2023-07-23T08:01:01.787Z,68.59
2023-07-23T08:02:01.749Z,67.99
2023-07-23T08:03:01.835Z,68.32
2023-07-23T08:04:01.920Z,67.93
2023-07-23T08:05:01.962Z,68.02
2023-07-23T08:06:01.778Z,68.02
2023-07-23T08:07:01.681Z,67.72
2023-07-23T08:08:01.671Z,68.69
2023-07-23T08:09:01.665Z,68.69
2023-07-23T08:10:01.649Z,68.39
2023-07-23T08:11:01.660Z,68.19
2023-07-23T08:12:01.669Z,68.39
2023-07-23T08:13:01.620Z,68.29
2023-07-23T08:14:01.609Z,68.69
2023-07-23T08:15:01.597Z,67.89
2023-07-23T08:16:01.612Z,68.29
2023-07-23T08:17:01.597Z,68.49
2023-07-23T08:18:01.563Z,69.39
2023-07-23T08:19:01.620Z,68.19
2023-07-23T08:20:01.542Z,68.26
2023-07-23T08:21:01.574Z,68.29
2023-07-23T08:22:01.526Z,67.89
2023-07-23T08:23:01.515Z,67.22
2023-07-23T08:24:01.504Z,67.82
2023-07-23T08:25:01.512Z,68.13
2023-07-23T08:26:01.494Z,68.46
2023-07-23T08:27:01.483Z,68.02
2023-07-23T08:28:01.542Z,68.36
2023-07-23T08:29:01.491Z,68.05
2023-07-23T08:30:01.456Z,67.93
2023-07-23T08:31:01.722Z,67.25
2023-07-23T08:32:01.421Z,69.26
2023-07-23T08:33:01.486Z,69.46
2023-07-23T08:34:01.407Z,69.16
2023-07-23T08:35:01.381Z,69.19
2023-07-23T08:36:01.440Z,69.39
2023-07-23T08:37:01.355Z,68.69
2023-07-23T08:38:01.351Z,69.29
2023-07-23T08:39:01.342Z,68.79
2023-07-23T08:40:01.336Z,68.39
2023-07-23T08:41:01.332Z,69.09
2023-07-23T08:42:01.307Z,68.26
2023-07-23T08:43:01.355Z,68.36
2023-07-23T08:44:01.300Z,68.76
2023-07-23T08:45:01.267Z,68.66
2023-07-23T08:46:01.394Z,67.96
2023-07-23T08:47:01.246Z,68.55
2023-07-23T08:48:01.250Z,67.96
2023-07-23T08:49:01.227Z,68.16
2023-07-23T08:50:03.164Z,67.86
2023-07-23T08:51:01.232Z,67.96
2023-07-23T08:52:01.206Z,68.26
2023-07-23T08:53:01.176Z,68.89
2023-07-23T08:54:01.172Z,68.59
2023-07-23T08:55:01.162Z,69.09
2023-07-23T08:56:01.160Z,69.62
2023-07-23T08:57:01.169Z,69.73
2023-07-23T08:58:01.143Z,69.82
2023-07-23T08:59:01.112Z,69.82
2023-07-23T09:00:01.110Z,69.99
2023-07-23T09:01:01.098Z,70.19
2023-07-23T09:02:01.085Z,70.69
2023-07-23T09:03:01.108Z,70.69
2023-07-23T09:04:01.067Z,70.39
2023-07-23T09:05:01.075Z,70.29
2023-07-23T09:06:01.036Z,69.89
2023-07-23T09:07:01.022Z,70.19
2023-07-23T09:08:01.016Z,70.29
2023-07-23T09:09:01.026Z,70.19
2023-07-23T09:10:01.015Z,70.50
2023-07-23T09:11:00.980Z,71.12
2023-07-23T09:12:00.971Z,71.43
2023-07-23T09:13:00.979Z,71.09
2023-07-23T09:14:00.951Z,71.03
2023-07-23T09:15:00.931Z,70.69
2023-07-23T09:16:01.359Z,71.09
2023-07-23T09:17:01.004Z,71.19
2023-07-23T09:18:00.927Z,71.09
2023-07-23T09:19:00.909Z,71.30
2023-07-23T09:20:00.902Z,71.30
2023-07-23T09:21:00.870Z,71.16
2023-07-23T09:22:00.855Z,71.26
2023-07-23T09:23:00.845Z,71.39
2023-07-23T09:24:00.860Z,71.80
2023-07-23T09:25:00.842Z,72.00
2023-07-23T09:26:00.816Z,72.09
2023-07-23T09:27:00.804Z,72.73
2023-07-23T09:28:00.798Z,73.23
2023-07-23T09:29:00.823Z,73.03
2023-07-23T09:30:00.797Z,73.47
2023-07-23T09:31:00.858Z,73.77
2023-07-23T09:32:00.752Z,74.17
2023-07-23T09:33:00.780Z,73.97
2023-07-23T09:34:00.753Z,74.23
2023-07-23T09:35:00.747Z,73.73
2023-07-23T09:36:00.711Z,73.30
2023-07-23T09:37:00.693Z,72.89
2023-07-23T09:38:00.684Z,73.19
2023-07-23T09:39:00.673Z,73.39
2023-07-23T09:40:00.684Z,72.89
2023-07-23T09:41:00.670Z,73.10
2023-07-23T09:42:00.634Z,72.73
2023-07-23T09:43:00.628Z,73.47
2023-07-23T09:44:00.662Z,73.97
2023-07-23T09:45:00.629Z,74.37
2023-07-23T09:46:00.597Z,74.47
2023-07-23T09:47:00.718Z,75.17
2023-07-23T09:48:14.089Z,75.07
2023-07-23T09:49:00.562Z,75.37
2023-07-23T09:50:00.565Z,75.07
2023-07-23T09:51:00.559Z,75.21
2023-07-23T09:52:00.533Z,75.91
2023-07-23T09:53:00.518Z,76.21
2023-07-23T09:54:00.504Z,76.07
2023-07-23T09:55:00.501Z,75.34
2023-07-23T09:56:00.496Z,75.57
2023-07-23T09:57:02.252Z,75.27
2023-07-23T09:58:00.457Z,75.84
2023-07-23T09:59:00.452Z,75.43
2023-07-23T10:00:00.437Z,75.40
2023-07-23T10:01:00.488Z,75.10
2023-07-23T10:02:00.440Z,75.00
2023-07-23T10:03:01.727Z,74.84
2023-07-23T10:04:00.396Z,75.34
2023-07-23T10:05:00.383Z,75.54
2023-07-23T10:06:00.395Z,75.50
2023-07-23T10:07:00.359Z,75.10
2023-07-23T10:08:00.351Z,75.16
2023-07-23T10:09:00.339Z,74.46
2023-07-23T10:10:00.330Z,74.96
2023-07-23T10:11:00.342Z,74.56
2023-07-23T10:12:00.305Z,74.80
2023-07-23T10:13:00.299Z,74.90
2023-07-23T10:14:00.283Z,75.20
2023-07-23T10:15:00.276Z,74.96
2023-07-23T10:16:00.285Z,74.56
2023-07-23T10:17:00.246Z,75.37
2023-07-23T10:18:00.391Z,75.20
2023-07-23T10:19:00.231Z,75.40
2023-07-23T10:20:00.212Z,76.00
2023-07-23T10:21:00.223Z,76.24
2023-07-23T10:22:00.210Z,76.84
2023-07-23T10:23:00.186Z,77.17
2023-07-23T10:24:00.172Z,77.28
2023-07-23T10:25:00.203Z,77.87
2023-07-23T10:26:00.154Z,77.67
2023-07-23T10:27:00.139Z,77.54
2023-07-23T10:28:00.132Z,77.37
2023-07-23T10:29:00.145Z,78.18
2023-07-23T10:30:00.132Z,78.28
2023-07-23T10:31:00.130Z,78.78
2023-07-23T10:32:00.134Z,78.68
2023-07-23T10:33:00.109Z,78.68
2023-07-23T10:34:00.066Z,79.18
2023-07-23T10:35:00.047Z,79.92
2023-07-23T10:36:00.170Z,79.72
2023-07-23T10:37:00.028Z,79.48
2023-07-23T10:38:00.036Z,79.82
2023-07-23T10:39:00.010Z,80.22
2023-07-23T10:40:00.001Z,80.56
2023-07-23T10:40:59.982Z,80.86
2023-07-23T10:41:59.973Z,80.42
2023-07-23T10:43:00.044Z,80.22
2023-07-23T10:43:59.953Z,80.52
2023-07-23T10:44:59.948Z,81.06
2023-07-23T10:45:59.960Z,81.56
2023-07-23T10:46:59.920Z,82.17
2023-07-23T10:47:59.989Z,82.46
2023-07-23T10:48:59.899Z,82.26
2023-07-23T10:49:59.886Z,82.46
2023-07-23T10:50:59.876Z,82.67
2023-07-23T10:51:59.866Z,82.37
2023-07-23T10:52:59.848Z,82.67
2023-07-23T10:53:59.864Z,82.67
2023-07-23T10:54:59.825Z,82.73
2023-07-23T10:55:59.826Z,82.32
2023-07-23T10:56:59.806Z,82.73
2023-07-23T10:57:59.820Z,82.73
2023-07-23T10:58:59.789Z,82.39
2023-07-23T10:59:59.793Z,82.09
2023-07-23T11:00:59.793Z,81.55
2023-07-23T11:01:59.784Z,82.09
2023-07-23T11:02:59.866Z,82.43
2023-07-23T11:03:59.979Z,82.63
2023-07-23T11:04:59.717Z,83.91
2023-07-23T11:05:59.720Z,84.27
2023-07-23T11:06:59.697Z,84.07
2023-07-23T11:07:59.697Z,83.97
2023-07-23T11:08:59.691Z,83.93
2023-07-23T11:09:59.666Z,83.79
2023-07-23T11:11:01.585Z,83.33
2023-07-23T11:11:59.644Z,83.93
2023-07-23T11:12:59.626Z,84.33
2023-07-23T11:13:59.620Z,84.67
2023-07-23T11:14:59.615Z,85.41
2023-07-23T11:15:59.691Z,85.58
2023-07-23T11:16:59.581Z,85.27
2023-07-23T11:18:05.873Z,85.27
2023-07-23T11:18:59.598Z,85.17
2023-07-23T11:19:59.555Z,85.17
2023-07-23T11:20:59.540Z,85.92
2023-07-23T11:21:59.576Z,86.32
2023-07-23T11:22:59.543Z,86.82
2023-07-23T11:23:59.506Z,87.02
2023-07-23T11:24:59.496Z,87.02
2023-07-23T11:25:59.497Z,86.72
2023-07-23T11:26:59.560Z,86.42
2023-07-23T11:27:59.489Z,86.38
2023-07-23T11:28:59.453Z,86.62
2023-07-23T11:29:59.446Z,86.68
2023-07-23T11:30:59.428Z,87.52
2023-07-23T11:31:59.463Z,87.62
2023-07-23T11:32:59.434Z,87.73
2023-07-23T11:33:59.419Z,87.73
2023-07-23T11:34:59.389Z,87.73
2023-07-23T11:35:59.373Z,87.62
2023-07-23T11:36:59.387Z,87.32
2023-07-23T11:37:59.351Z,86.78
2023-07-23T11:38:59.368Z,86.38
2023-07-23T11:39:59.351Z,86.18
2023-07-23T11:40:59.313Z,86.58
2023-07-23T11:41:59.341Z,86.28
2023-07-23T11:42:59.306Z,85.97
2023-07-23T11:43:59.313Z,86.38
2023-07-23T11:44:59.273Z,85.39
2023-07-23T11:45:59.301Z,84.35
2023-07-23T11:46:59.250Z,84.05
2023-07-23T11:47:59.302Z,84.85
2023-07-23T11:48:59.251Z,85.80
2023-07-23T11:49:59.227Z,86.10
2023-07-23T11:50:59.209Z,86.94
2023-07-23T11:51:59.229Z,87.14
2023-07-23T11:52:59.194Z,87.84
2023-07-23T11:53:59.178Z,87.98
2023-07-23T11:54:59.162Z,87.98
2023-07-23T11:55:59.194Z,88.29
2023-07-23T11:56:59.154Z,88.79
2023-07-23T11:57:59.144Z,89.23
2023-07-23T11:58:59.123Z,90.03
2023-07-23T11:59:59.115Z,90.73
2023-07-23T12:00:59.111Z,90.58
2023-07-23T12:01:59.195Z,91.14
2023-07-23T12:02:59.111Z,90.68
2023-07-23T12:03:59.103Z,91.24
2023-07-23T12:04:59.050Z,90.89
2023-07-23T12:05:59.042Z,90.99
2023-07-23T12:06:59.055Z,90.79
2023-07-23T12:07:59.021Z,89.70
2023-07-23T12:08:59.006Z,88.70
2023-07-23T12:09:59.002Z,88.76
2023-07-23T12:10:58.984Z,88.36
2023-07-23T12:11:59.006Z,88.16
2023-07-23T12:12:58.961Z,89.90
2023-07-23T12:13:58.962Z,91.16
2023-07-23T12:14:58.945Z,89.86
2023-07-23T12:15:58.956Z,89.06
2023-07-23T12:16:58.925Z,89.40
2023-07-23T12:17:59.001Z,90.35
2023-07-23T12:18:58.895Z,90.95
2023-07-23T12:19:58.883Z,90.25
2023-07-23T12:20:58.880Z,90.45
2023-07-23T12:21:58.877Z,90.25
2023-07-23T12:22:58.849Z,90.65
2023-07-23T12:23:58.868Z,90.41
2023-07-23T12:24:58.857Z,90.49
2023-07-23T12:25:58.839Z,91.39
2023-07-23T12:26:58.821Z,91.69
2023-07-23T12:27:58.822Z,92.20
2023-07-23T12:28:58.792Z,91.60
2023-07-23T12:29:58.777Z,91.94
2023-07-23T12:30:58.827Z,92.99
2023-07-23T12:31:58.751Z,93.69
2023-07-23T12:32:58.809Z,94.49
2023-07-23T12:33:58.729Z,94.59
2023-07-23T12:34:58.725Z,95.20
2023-07-23T12:35:58.709Z,95.50
2023-07-23T12:36:58.730Z,96.00
2023-07-23T12:37:58.717Z,95.75
2023-07-23T12:38:58.677Z,95.84
2023-07-23T12:39:58.661Z,95.95
2023-07-23T12:40:58.653Z,95.64
2023-07-23T12:41:58.662Z,95.95
2023-07-23T12:42:58.685Z,96.75
2023-07-23T12:43:58.622Z,96.04
2023-07-23T12:44:58.617Z,96.45
2023-07-23T12:45:58.653Z,96.45
2023-07-23T12:46:58.621Z,95.64
2023-07-23T12:47:58.616Z,95.64
2023-07-23T12:48:58.593Z,96.45
2023-07-23T12:49:58.554Z,96.75
2023-07-23T12:50:58.546Z,97.35
2023-07-23T12:51:58.531Z,97.35